createdAt,value
2017-06-12T00:00:01.017Z,1004.61
2017-06-12T00:01:13.252Z,1004.62
2017-06-12T00:02:25.737Z,1004.64
2017-06-12T00:03:37.951Z,1004.64
2017-06-12T00:04:50.471Z,1004.66
2017-06-12T00:06:02.993Z,1004.68
2017-06-12T00:07:15.219Z,1004.69
2017-06-12T00:08:27.481Z,1004.69
2017-06-12T00:09:39.706Z,1004.72
2017-06-12T00:10:52.206Z,1004.76
2017-06-12T00:12:04.752Z,1004.73
2017-06-12T00:13:16.976Z,1004.68
2017-06-12T00:14:29.507Z,1004.67
2017-06-12T00:15:41.727Z,1004.68
2017-06-12T00:16:53.984Z,1004.66
2017-06-12T00:18:06.520Z,1004.69
2017-06-12T00:19:19.002Z,1004.66
2017-06-12T00:20:31.545Z,1004.66
2017-06-12T00:21:44.070Z,1004.64
2017-06-12T00:22:56.615Z,1004.6
2017-06-12T00:24:08.878Z,1004.64
2017-06-12T00:25:21.420Z,1004.54
2017-06-12T00:26:33.954Z,1004.57
2017-06-12T00:27:46.470Z,1004.59
2017-06-12T00:28:58.712Z,1004.55
2017-06-12T00:30:11.338Z,1004.49
2017-06-12T00:31:23.867Z,1004.39
2017-06-12T00:32:36.380Z,1004.42
2017-06-12T00:33:48.617Z,1004.46
2017-06-12T00:35:01.165Z,1004.41
2017-06-12T00:36:13.684Z,1004.4
2017-06-12T00:37:26.216Z,1004.4
2017-06-12T00:38:38.759Z,1004.36
2017-06-12T00:39:51.283Z,1004.36
2017-06-12T00:41:03.620Z,1004.38
2017-06-12T00:42:16.152Z,1004.39
2017-06-12T00:43:28.671Z,1004.37
2017-06-12T00:44:41.217Z,1004.38
2017-06-12T00:45:53.737Z,1004.35
2017-06-12T00:47:06.255Z,1004.4
2017-06-12T00:48:18.778Z,1004.38
2017-06-12T00:49:31.342Z,1004.36
2017-06-12T00:50:43.848Z,1004.32
2017-06-12T00:51:56.388Z,1004.31
2017-06-12T00:53:08.312Z,1004.24
2017-06-12T00:54:20.859Z,1004.18
2017-06-12T00:55:33.400Z,1004.1
2017-06-12T00:56:45.929Z,1004.07
2017-06-12T00:57:58.163Z,1004.02
2017-06-12T00:59:10.697Z,1003.97
2017-06-12T01:00:23.235Z,1003.96
2017-06-12T01:01:35.456Z,1003.94
2017-06-12T01:02:48.035Z,1003.97
2017-06-12T01:04:00.276Z,1004.01
2017-06-12T01:05:12.535Z,1003.98
2017-06-12T01:06:25.082Z,1003.9
2017-06-12T01:07:37.603Z,1003.95
2017-06-12T01:08:49.831Z,1003.96
2017-06-12T01:10:02.362Z,1003.92
2017-06-12T01:11:14.876Z,1003.91
2017-06-12T01:12:27.424Z,1003.91
2017-06-12T01:13:39.968Z,1003.84
2017-06-12T01:14:52.204Z,1003.84
2017-06-12T01:16:04.410Z,1003.81
2017-06-12T01:17:16.952Z,1003.82
2017-06-12T01:18:29.450Z,1003.83
2017-06-12T01:19:42.287Z,1003.83
2017-06-12T01:20:54.807Z,1003.82
2017-06-12T01:22:07.313Z,1003.81
2017-06-12T01:23:19.834Z,1003.75
2017-06-12T01:24:32.371Z,1003.73
2017-06-12T01:25:44.619Z,1003.77
2017-06-12T01:26:56.844Z,1003.84
2017-06-12T01:28:09.396Z,1003.85
2017-06-12T01:29:21.604Z,1003.82
2017-06-12T01:30:34.125Z,1003.8
2017-06-12T01:31:46.628Z,1003.82
2017-06-12T01:32:59.149Z,1003.82
2017-06-12T01:34:11.695Z,1003.84
2017-06-12T01:35:24.235Z,1003.86
2017-06-12T01:36:36.492Z,1003.82
2017-06-12T01:37:48.707Z,1003.8
2017-06-12T01:39:01.258Z,1003.81
2017-06-12T01:40:13.828Z,1003.79
2017-06-12T01:41:26.371Z,1003.8
2017-06-12T01:42:38.887Z,1003.81
2017-06-12T01:43:51.105Z,1003.82
2017-06-12T01:45:03.629Z,1003.78
2017-06-12T01:46:16.447Z,1003.68
2017-06-12T01:47:28.981Z,1003.67
2017-06-12T01:48:41.492Z,1003.68
2017-06-12T01:49:54.038Z,1003.63
2017-06-12T01:51:06.290Z,1003.66
2017-06-12T01:52:18.827Z,1003.69
2017-06-12T01:53:31.397Z,1003.7
2017-06-12T01:54:43.903Z,1003.63
2017-06-12T01:55:56.438Z,1003.54
2017-06-12T01:57:09.077Z,1003.49
2017-06-12T01:58:21.598Z,1003.51
2017-06-12T01:59:34.102Z,1003.55
2017-06-12T02:00:46.658Z,1003.47
2017-06-12T02:01:59.200Z,1003.49
2017-06-12T02:03:11.471Z,1003.41
2017-06-12T02:04:23.993Z,1003.39
2017-06-12T02:05:36.516Z,1003.36
2017-06-12T02:06:49.037Z,1003.34
2017-06-12T02:08:01.873Z,1003.33
2017-06-12T02:09:14.410Z,1003.33
2017-06-12T02:10:26.988Z,1003.29
2017-06-12T02:11:39.542Z,1003.31
2017-06-12T02:12:51.789Z,1003.39
2017-06-12T02:14:04.335Z,1003.45
2017-06-12T02:15:16.258Z,1003.45
2017-06-12T02:16:28.805Z,1003.38
2017-06-12T02:17:41.343Z,1003.35
2017-06-12T02:18:53.868Z,1003.29
2017-06-12T02:20:06.412Z,1003.32
2017-06-12T02:21:18.940Z,1003.37
2017-06-12T02:22:31.499Z,1003.4
2017-06-12T02:23:44.032Z,1003.38
2017-06-12T02:24:56.573Z,1003.35
2017-06-12T02:26:09.082Z,1003.38
2017-06-12T02:27:21.616Z,1003.38
2017-06-12T02:28:34.136Z,1003.34
2017-06-12T02:29:46.637Z,1003.41
2017-06-12T02:30:59.163Z,1003.41
2017-06-12T02:32:11.701Z,1003.39
2017-06-12T02:33:24.236Z,1003.41
2017-06-12T02:34:36.794Z,1003.43
2017-06-12T02:35:49.344Z,1003.39
2017-06-12T02:37:01.587Z,1003.41
2017-06-12T02:38:14.131Z,1003.41
2017-06-12T02:39:26.678Z,1003.41
2017-06-12T02:40:39.322Z,1003.38
2017-06-12T02:41:51.569Z,1003.39
2017-06-12T02:43:04.095Z,1003.36
2017-06-12T02:44:16.607Z,1003.38
2017-06-12T02:45:29.136Z,1003.35
2017-06-12T02:46:41.692Z,1003.37
2017-06-12T02:47:54.214Z,1003.37
2017-06-12T02:49:06.146Z,1003.4
2017-06-12T02:50:18.668Z,1003.37
2017-06-12T02:51:31.201Z,1003.42
2017-06-12T02:52:43.755Z,1003.4
2017-06-12T02:53:55.978Z,1003.37
2017-06-12T02:55:08.521Z,1003.34
2017-06-12T02:56:21.041Z,1003.25
2017-06-12T02:57:33.563Z,1003.27
2017-06-12T02:58:46.116Z,1003.32
2017-06-12T02:59:58.634Z,1003.29
2017-06-12T03:01:10.876Z,1003.31
2017-06-12T03:02:23.096Z,1003.31
2017-06-12T03:03:35.625Z,1003.27
2017-06-12T03:04:48.184Z,1003.33
2017-06-12T03:06:00.718Z,1003.36
2017-06-12T03:07:12.634Z,1003.36
2017-06-12T03:08:25.176Z,1003.36
2017-06-12T03:09:37.073Z,1003.31
2017-06-12T03:10:49.293Z,1003.3
2017-06-12T03:12:01.814Z,1003.29
2017-06-12T03:13:14.455Z,1003.31
2017-06-12T03:14:26.683Z,1003.33
2017-06-12T03:15:39.230Z,1003.3
2017-06-12T03:16:51.781Z,1003.31
2017-06-12T03:18:04.311Z,1003.31
2017-06-12T03:19:16.560Z,1003.29
2017-06-12T03:20:29.064Z,1003.32
2017-06-12T03:21:41.627Z,1003.27
2017-06-12T03:22:53.858Z,1003.27
2017-06-12T03:24:06.472Z,1003.29
2017-06-12T03:25:18.390Z,1003.23
2017-06-12T03:26:30.916Z,1003.22
2017-06-12T03:27:43.463Z,1003.21
2017-06-12T03:28:56.014Z,1003.2
2017-06-12T03:30:08.230Z,1003.16
2017-06-12T03:31:20.145Z,1003.16
2017-06-12T03:32:32.698Z,1003.17
2017-06-12T03:33:45.261Z,1003.25
2017-06-12T03:34:57.814Z,1003.19
2017-06-12T03:36:09.761Z,1003.2
2017-06-12T03:37:22.283Z,1003.2
2017-06-12T03:38:34.527Z,1003.26
2017-06-12T03:39:47.050Z,1003.24
2017-06-12T03:40:59.571Z,1003.23
2017-06-12T03:42:11.821Z,1003.19
2017-06-12T03:43:24.032Z,1003.26
2017-06-12T03:44:36.557Z,1003.28
2017-06-12T03:45:48.792Z,1003.35
2017-06-12T03:47:01.026Z,1003.36
2017-06-12T03:48:13.287Z,1003.35
2017-06-12T03:49:25.492Z,1003.35
2017-06-12T03:50:38.011Z,1003.34
2017-06-12T03:51:50.225Z,1003.25
2017-06-12T03:53:02.802Z,1003.26
2017-06-12T03:54:15.345Z,1003.18
2017-06-12T03:55:27.871Z,1003.21
2017-06-12T03:56:40.512Z,1003.21
2017-06-12T03:57:53.037Z,1003.19
2017-06-12T03:59:05.545Z,1003.18
2017-06-12T04:00:18.081Z,1003.18
2017-06-12T04:01:30.613Z,1003.13
2017-06-12T04:02:43.138Z,1003.15
2017-06-12T04:03:55.665Z,1003.17
2017-06-12T04:05:08.205Z,1003.14
2017-06-12T04:06:20.757Z,1003.07
2017-06-12T04:07:32.989Z,1003.06
2017-06-12T04:08:45.521Z,1003.11
2017-06-12T04:09:58.042Z,1003.09
2017-06-12T04:11:10.565Z,1003.04
2017-06-12T04:12:22.787Z,1003.02
2017-06-12T04:13:35.308Z,1002.99
2017-06-12T04:14:47.847Z,1003
2017-06-12T04:16:00.397Z,1002.97
2017-06-12T04:17:12.616Z,1002.93
2017-06-12T04:18:25.139Z,1002.96
2017-06-12T04:19:37.663Z,1003.02
2017-06-12T04:20:50.214Z,1003.11
2017-06-12T04:22:02.731Z,1003.21
2017-06-12T04:23:14.955Z,1003.34
2017-06-12T04:24:27.471Z,1003.27
2017-06-12T04:25:40.010Z,1003.28
2017-06-12T04:26:52.514Z,1003.23
2017-06-12T04:28:05.013Z,1003.23
2017-06-12T04:29:17.548Z,1003.27
2017-06-12T04:30:30.105Z,1003.27
2017-06-12T04:31:42.647Z,1003.34
2017-06-12T04:32:55.169Z,1003.44
2017-06-12T04:34:07.686Z,1003.52
2017-06-12T04:35:19.934Z,1003.48
2017-06-12T04:36:32.453Z,1003.52
2017-06-12T04:37:45.003Z,1003.48
2017-06-12T04:38:57.572Z,1003.47
2017-06-12T04:40:10.211Z,1003.41
2017-06-12T04:41:22.711Z,1003.39
2017-06-12T04:42:35.236Z,1003.42
2017-06-12T04:43:47.753Z,1003.34
2017-06-12T04:45:00.298Z,1003.4
2017-06-12T04:46:12.546Z,1003.46
2017-06-12T04:47:24.789Z,1003.57
2017-06-12T04:48:37.333Z,1003.56
2017-06-12T04:49:49.885Z,1003.53
2017-06-12T04:51:02.087Z,1003.58
2017-06-12T04:52:14.617Z,1003.51
2017-06-12T04:53:27.141Z,1003.45
2017-06-12T04:54:39.687Z,1003.51
2017-06-12T04:55:52.212Z,1003.59
2017-06-12T04:57:04.728Z,1003.69
2017-06-12T04:58:17.249Z,1003.69
2017-06-12T04:59:29.782Z,1003.72
2017-06-12T05:00:42.020Z,1003.65
2017-06-12T05:01:54.544Z,1003.73
2017-06-12T05:03:07.065Z,1003.7
2017-06-12T05:04:19.611Z,1003.7
2017-06-12T05:05:32.137Z,1003.72
2017-06-12T05:06:44.700Z,1003.68
2017-06-12T05:07:57.225Z,1003.66
2017-06-12T05:09:09.762Z,1003.75
2017-06-12T05:10:22.305Z,1003.72
2017-06-12T05:11:34.552Z,1003.74
2017-06-12T05:12:46.779Z,1003.81
2017-06-12T05:13:58.705Z,1003.77
2017-06-12T05:15:10.955Z,1003.76
2017-06-12T05:16:23.493Z,1003.75
2017-06-12T05:17:35.759Z,1003.82
2017-06-12T05:18:48.030Z,1003.74
2017-06-12T05:20:00.608Z,1003.73
2017-06-12T05:21:12.571Z,1003.72
2017-06-12T05:22:25.097Z,1003.78
2017-06-12T05:23:37.422Z,1003.8
2017-06-12T05:24:49.659Z,1003.87
2017-06-12T05:26:01.614Z,1003.9
2017-06-12T05:27:14.151Z,1003.84
2017-06-12T05:28:26.694Z,1003.84
2017-06-12T05:29:38.925Z,1003.84
2017-06-12T05:30:51.168Z,1003.89
2017-06-12T05:32:03.717Z,1003.92
2017-06-12T05:33:16.253Z,1003.89
2017-06-12T05:34:28.773Z,1003.9
2017-06-12T05:35:41.310Z,1003.99
2017-06-12T05:36:53.826Z,1003.98
2017-06-12T05:38:05.750Z,1003.91
2017-06-12T05:39:17.991Z,1003.89
2017-06-12T05:40:30.531Z,1003.84
2017-06-12T05:41:43.102Z,1003.87
2017-06-12T05:42:55.631Z,1003.92
2017-06-12T05:44:08.174Z,1004.01
2017-06-12T05:45:20.390Z,1003.97
2017-06-12T05:46:32.945Z,1003.99
2017-06-12T05:47:45.493Z,1003.99
2017-06-12T05:48:57.739Z,1004.08
2017-06-12T05:50:10.273Z,1004.1
2017-06-12T05:51:22.824Z,1004.06
2017-06-12T05:52:35.037Z,1004.15
2017-06-12T05:53:47.570Z,1004.14
2017-06-12T05:54:59.503Z,1004.08
2017-06-12T05:56:11.738Z,1004.14
2017-06-12T05:57:24.246Z,1004.17
2017-06-12T05:58:36.774Z,1004.1
2017-06-12T05:59:49.020Z,1004.23
2017-06-12T06:01:01.245Z,1004.22
2017-06-12T06:02:13.805Z,1004.19
2017-06-12T06:03:26.325Z,1004.19
2017-06-12T06:04:38.854Z,1004.17
2017-06-12T06:05:50.822Z,1004.36
2017-06-12T06:07:03.323Z,1004.26
2017-06-12T06:08:15.919Z,1004.34
2017-06-12T06:09:28.462Z,1004.65
2017-06-12T06:10:40.966Z,1004.56
2017-06-12T06:11:53.533Z,1004.61
2017-06-12T06:13:05.800Z,1004.65
2017-06-12T06:14:18.296Z,1004.65
2017-06-12T06:15:30.864Z,1004.49
2017-06-12T06:16:43.413Z,1004.5
2017-06-12T06:17:56.027Z,1004.46
2017-06-12T06:19:08.532Z,1004.49
2017-06-12T06:20:20.772Z,1004.53
2017-06-12T06:21:33.015Z,1004.62
2017-06-12T06:22:45.534Z,1004.53
2017-06-12T06:23:57.738Z,1004.44
2017-06-12T06:25:10.266Z,1004.45
2017-06-12T06:26:22.823Z,1004.51
2017-06-12T06:27:35.330Z,1004.55
2017-06-12T06:28:47.890Z,1004.55
2017-06-12T06:30:00.435Z,1004.4
2017-06-12T06:31:12.667Z,1004.52
2017-06-12T06:32:24.886Z,1004.56
2017-06-12T06:33:37.431Z,1004.53
2017-06-12T06:34:49.953Z,1004.56
2017-06-12T06:36:01.890Z,1004.66
2017-06-12T06:37:14.398Z,1004.67
2017-06-12T06:38:26.965Z,1004.65
2017-06-12T06:39:39.227Z,1005.57
2017-06-12T06:40:51.777Z,1004.62
2017-06-12T06:42:04.305Z,1004.64
2017-06-12T06:43:16.852Z,1005.1
2017-06-12T06:44:29.394Z,1005.05
2017-06-12T06:45:41.936Z,1005.16
2017-06-12T06:46:53.889Z,1004.62
2017-06-12T06:48:05.836Z,1004.86
2017-06-12T06:49:18.107Z,1004.55
2017-06-12T06:50:30.649Z,1004.61
2017-06-12T06:51:43.195Z,1004.61
2017-06-12T06:52:55.708Z,1004.44
2017-06-12T06:54:08.237Z,1005.04
2017-06-12T06:55:20.786Z,1005.32
2017-06-12T06:56:33.321Z,1004.8
2017-06-12T06:57:45.849Z,1004.95
2017-06-12T06:58:58.072Z,1005.33
2017-06-12T07:00:10.313Z,1004.81
2017-06-12T07:01:22.868Z,1004.81
2017-06-12T07:02:35.403Z,1004.76
2017-06-12T07:03:47.945Z,1004.7
2017-06-12T07:05:00.492Z,1004.75
2017-06-12T07:06:13.041Z,1004.94
2017-06-12T07:07:25.547Z,1005.07
2017-06-12T07:08:38.104Z,1005.15
2017-06-12T07:09:50.659Z,1005.33
2017-06-12T07:11:03.174Z,1005.22
2017-06-12T07:12:15.420Z,1004.54
2017-06-12T07:13:27.970Z,1005.02
2017-06-12T07:14:40.502Z,1004.82
2017-06-12T07:15:53.045Z,1004.5
2017-06-12T07:17:05.326Z,1004.76
2017-06-12T07:18:17.576Z,1004.65
2017-06-12T07:19:29.784Z,1004.71
2017-06-12T07:20:42.025Z,1004.71
2017-06-12T07:21:54.571Z,1004.64
2017-06-12T07:23:06.771Z,1004.69
2017-06-12T07:24:19.326Z,1004.73
2017-06-12T07:25:31.859Z,1004.62
2017-06-12T07:26:44.406Z,1004.71
2017-06-12T07:27:56.655Z,1004.6
2017-06-12T07:29:09.217Z,1004.6
2017-06-12T07:30:21.481Z,1004.64
2017-06-12T07:31:34.052Z,1004.68
2017-06-12T07:32:46.305Z,1004.65
2017-06-12T07:33:58.829Z,1004.55
2017-06-12T07:35:10.793Z,1004.37
2017-06-12T07:36:23.365Z,1004.67
2017-06-12T07:37:35.899Z,1004.63
2017-06-12T07:38:48.460Z,1004.69
2017-06-12T07:40:00.999Z,1004.64
2017-06-12T07:41:13.219Z,1004.76
2017-06-12T07:42:25.774Z,1004.65
2017-06-12T07:43:38.314Z,1004.6
2017-06-12T07:44:50.885Z,1004.89
2017-06-12T07:46:03.113Z,1004.78
2017-06-12T07:47:15.686Z,1004.71
2017-06-12T07:48:28.252Z,1004.83
2017-06-12T07:49:40.798Z,1004.69
2017-06-12T07:50:53.337Z,1004.9
2017-06-12T07:52:05.559Z,1004.86
2017-06-12T07:53:17.807Z,1004.68
2017-06-12T07:54:30.374Z,1004.74
2017-06-12T07:55:42.903Z,1004.8
2017-06-12T07:56:55.148Z,1004.69
2017-06-12T07:58:07.096Z,1004.67
2017-06-12T07:59:19.332Z,1004.88
2017-06-12T08:00:31.557Z,1004.99
2017-06-12T08:01:44.104Z,1004.92
2017-06-12T08:02:56.684Z,1004.69
2017-06-12T08:04:09.224Z,1004.87
2017-06-12T08:05:21.763Z,1004.94
2017-06-12T08:06:33.991Z,1005.12
2017-06-12T08:07:46.242Z,1005.08
2017-06-12T08:08:58.792Z,1004.92
2017-06-12T08:10:11.354Z,1004.96
2017-06-12T08:11:23.620Z,1004.9
2017-06-12T08:12:36.192Z,1004.8
2017-06-12T08:13:48.434Z,1004.87
2017-06-12T08:15:00.958Z,1004.98
2017-06-12T08:16:13.214Z,1004.92
2017-06-12T08:17:25.779Z,1004.92
2017-06-12T08:18:38.325Z,1004.87
2017-06-12T08:19:50.867Z,1005.03
2017-06-12T08:21:03.395Z,1004.9
2017-06-12T08:22:15.933Z,1004.91
2017-06-12T08:23:28.511Z,1004.83
2017-06-12T08:24:41.072Z,1004.72
2017-06-12T08:25:53.646Z,1004.76
2017-06-12T08:27:06.221Z,1004.82
2017-06-12T08:28:18.171Z,1004.8
2017-06-12T08:29:30.114Z,1004.7
2017-06-12T08:30:42.355Z,1004.73
2017-06-12T08:31:54.899Z,1004.68
2017-06-12T08:33:07.147Z,1004.72
2017-06-12T08:34:19.715Z,1004.86
2017-06-12T08:35:32.263Z,1004.86
2017-06-12T08:36:44.825Z,1004.86
2017-06-12T08:37:57.352Z,1004.87
2017-06-12T08:39:09.706Z,1004.85
2017-06-12T08:40:21.947Z,1004.68
2017-06-12T08:41:34.518Z,1004.67
2017-06-12T08:42:46.768Z,1004.8
2017-06-12T08:43:59.318Z,1004.89
2017-06-12T08:45:11.564Z,1004.78
2017-06-12T08:46:24.091Z,1004.84
2017-06-12T08:47:36.351Z,1004.88
2017-06-12T08:48:48.298Z,1004.82
2017-06-12T08:50:00.844Z,1004.72
2017-06-12T08:51:13.394Z,1004.74
2017-06-12T08:52:25.639Z,1004.69
2017-06-12T08:53:38.184Z,1004.72
2017-06-12T08:54:50.472Z,1004.74
2017-06-12T08:56:02.416Z,1004.79
2017-06-12T08:57:14.960Z,1004.78
2017-06-12T08:58:27.190Z,1004.69
2017-06-12T08:59:39.436Z,1004.8
2017-06-12T09:00:51.985Z,1004.84
2017-06-12T09:02:03.953Z,1004.95
2017-06-12T09:03:16.505Z,1004.83
2017-06-12T09:04:29.037Z,1005
2017-06-12T09:05:41.594Z,1004.83
2017-06-12T09:06:53.855Z,1004.89
2017-06-12T09:08:06.400Z,1004.92
2017-06-12T09:09:18.924Z,1004.9
2017-06-12T09:10:31.476Z,1005.02
2017-06-12T09:11:44.038Z,1004.9
2017-06-12T09:12:56.570Z,1004.99
2017-06-12T09:14:09.141Z,1005.09
2017-06-12T09:15:21.705Z,1004.94
2017-06-12T09:16:33.983Z,1005.16
2017-06-12T09:17:46.554Z,1005.14
2017-06-12T09:18:59.114Z,1005.15
2017-06-12T09:20:11.687Z,1005.26
2017-06-12T09:21:23.959Z,1005.34
2017-06-12T09:22:36.515Z,1005.3
2017-06-12T09:23:48.747Z,1005.43
2017-06-12T09:25:01.004Z,1005.45
2017-06-12T09:26:12.966Z,1005.57
2017-06-12T09:27:24.916Z,1005.56
2017-06-12T09:28:36.856Z,1005.5
2017-06-12T09:29:49.376Z,1005.55
2017-06-12T09:31:01.930Z,1005.53
2017-06-12T09:32:14.469Z,1005.54
2017-06-12T09:33:27.049Z,1005.49
2017-06-12T09:34:39.324Z,1005.52
2017-06-12T09:35:51.917Z,1005.62
2017-06-12T09:37:04.462Z,1005.52
2017-06-12T09:38:17.015Z,1005.41
2017-06-12T09:39:29.276Z,1005.3
2017-06-12T09:40:41.852Z,1005.23
2017-06-12T09:41:54.422Z,1005.33
2017-06-12T09:43:06.663Z,1005.31
2017-06-12T09:44:19.190Z,1005.37
2017-06-12T09:45:31.756Z,1005.34
2017-06-12T09:46:44.327Z,1005.43
2017-06-12T09:47:56.602Z,1005.63
2017-06-12T09:49:08.872Z,1005.64
2017-06-12T09:50:21.167Z,1005.53
2017-06-12T09:51:33.740Z,1005.49
2017-06-12T09:52:45.734Z,1005.42
2017-06-12T09:53:58.294Z,1005.56
2017-06-12T09:55:10.540Z,1005.45
2017-06-12T09:56:22.170Z,1005.42
2017-06-12T09:57:34.437Z,1005.4
2017-06-12T09:58:46.103Z,1005.36
2017-06-12T09:59:58.610Z,1005.41
2017-06-12T10:01:10.886Z,1005.38
2017-06-12T10:02:23.153Z,1005.37
2017-06-12T10:03:35.724Z,1005.43
2017-06-12T10:04:48.293Z,1005.37
2017-06-12T10:06:00.861Z,1005.33
2017-06-12T10:07:12.832Z,1005.44
2017-06-12T10:08:25.082Z,1005.5
2017-06-12T10:09:37.350Z,1005.4
2017-06-12T10:10:49.625Z,1005.41
2017-06-12T10:12:01.869Z,1005.48
2017-06-12T10:13:14.437Z,1005.66
2017-06-12T10:14:26.684Z,1005.6
2017-06-12T10:15:39.237Z,1005.59
2017-06-12T10:16:51.782Z,1005.59
2017-06-12T10:18:04.345Z,1005.69
2017-06-12T10:19:16.876Z,1005.76
2017-06-12T10:20:29.441Z,1005.71
2017-06-12T10:21:42.011Z,1005.68
2017-06-12T10:22:54.283Z,1005.51
2017-06-12T10:24:06.825Z,1005.5
2017-06-12T10:25:18.799Z,1005.56
2017-06-12T10:26:31.067Z,1005.56
2017-06-12T10:27:43.017Z,1005.65
2017-06-12T10:28:55.584Z,1005.59
2017-06-12T10:30:07.260Z,1005.48
2017-06-12T10:31:19.853Z,1005.51
2017-06-12T10:32:32.418Z,1005.49
2017-06-12T10:33:44.363Z,1005.49
2017-06-12T10:34:56.342Z,1005.48
2017-06-12T10:36:08.309Z,1005.63
2017-06-12T10:37:20.862Z,1005.46
2017-06-12T10:38:33.393Z,1005.56
2017-06-12T10:39:45.618Z,1005.53
2017-06-12T10:40:58.170Z,1005.66
2017-06-12T10:42:10.396Z,1005.82
2017-06-12T10:43:22.659Z,1005.95
2017-06-12T10:44:34.931Z,1005.69
2017-06-12T10:45:47.481Z,1005.7
2017-06-12T10:46:59.744Z,1005.82
2017-06-12T10:48:12.288Z,1005.94
2017-06-12T10:49:24.848Z,1006.07
2017-06-12T10:50:37.388Z,1006.01
2017-06-12T10:51:49.381Z,1005.91
2017-06-12T10:53:01.923Z,1006.09
2017-06-12T10:54:14.173Z,1006.24
2017-06-12T10:55:26.418Z,1006.2
2017-06-12T10:56:38.682Z,1006.14
2017-06-12T10:57:51.253Z,1006.17
2017-06-12T10:59:03.499Z,1006.16
2017-06-12T11:00:15.432Z,1006.12
2017-06-12T11:01:27.674Z,1006.14
2017-06-12T11:02:39.919Z,1006.29
2017-06-12T11:03:51.874Z,1006.28
2017-06-12T11:05:04.095Z,1006.24
2017-06-12T11:06:16.324Z,1006.21
2017-06-12T11:07:28.278Z,1006.17
2017-06-12T11:08:40.805Z,1006.28
2017-06-12T11:09:53.345Z,1006.33
2017-06-12T11:11:05.876Z,1006.37
2017-06-12T11:12:18.429Z,1006.33
2017-06-12T11:13:30.983Z,1006.4
2017-06-12T11:14:43.503Z,1006.5
2017-06-12T11:15:55.424Z,1006.49
2017-06-12T11:17:07.367Z,1006.46
2017-06-12T11:18:19.894Z,1006.45
2017-06-12T11:19:32.130Z,1006.28
2017-06-12T11:20:44.701Z,1006.24
2017-06-12T11:21:57.259Z,1006.04
2017-06-12T11:23:09.225Z,1006.14
2017-06-12T11:24:21.452Z,1006.2
2017-06-12T11:25:34.019Z,1006.23
2017-06-12T11:26:46.563Z,1006.17
2017-06-12T11:27:59.064Z,1006.13
2017-06-12T11:29:11.609Z,1006.05
2017-06-12T11:30:23.542Z,1006.13
2017-06-12T11:31:35.782Z,1006.11
2017-06-12T11:32:48.317Z,1006.21
2017-06-12T11:33:59.938Z,1006.27
2017-06-12T11:35:12.188Z,1006.33
2017-06-12T11:36:24.726Z,1006.24
2017-06-12T11:37:36.998Z,1006.45
2017-06-12T11:38:49.564Z,1006.29
2017-06-12T11:40:02.116Z,1006.2
2017-06-12T11:41:14.681Z,1006.11
2017-06-12T11:42:27.230Z,1006.07
2017-06-12T11:43:39.208Z,1006.12
2017-06-12T11:44:51.469Z,1006.23
2017-06-12T11:46:03.401Z,1006.23
2017-06-12T11:47:15.635Z,1006.18
2017-06-12T11:48:27.596Z,1006.33
2017-06-12T11:49:40.157Z,1006.48
2017-06-12T11:50:52.409Z,1006.42
2017-06-12T11:52:04.377Z,1006.47
2017-06-12T11:53:16.615Z,1006.44
2017-06-12T11:54:29.190Z,1006.43
2017-06-12T11:55:41.761Z,1006.41
2017-06-12T11:56:54.331Z,1006.27
2017-06-12T11:58:06.579Z,1006.29
2017-06-12T11:59:18.848Z,1006.3
2017-06-12T12:00:31.128Z,1006.35
2017-06-12T12:01:43.387Z,1006.31
2017-06-12T12:02:55.936Z,1006.36
2017-06-12T12:04:08.470Z,1006.36
2017-06-12T12:05:20.707Z,1006.28
2017-06-12T12:06:33.256Z,1006.15
2017-06-12T12:07:45.828Z,1006.26
2017-06-12T12:08:58.371Z,1006.46
2017-06-12T12:10:10.607Z,1006.61
2017-06-12T12:11:22.840Z,1006.49
2017-06-12T12:12:34.800Z,1006.31
2017-06-12T12:13:47.331Z,1006.41
2017-06-12T12:14:59.252Z,1006.25
2017-06-12T12:16:11.816Z,1006.4
2017-06-12T12:17:24.372Z,1006.24
2017-06-12T12:18:36.619Z,1006.42
2017-06-12T12:19:48.875Z,1006.47
2017-06-12T12:21:01.421Z,1006.54
2017-06-12T12:22:13.353Z,1006.54
2017-06-12T12:23:25.913Z,1006.54
2017-06-12T12:24:38.183Z,1006.49
2017-06-12T12:25:50.133Z,1006.46
2017-06-12T12:27:02.678Z,1006.57
2017-06-12T12:28:14.932Z,1006.67
2017-06-12T12:29:27.501Z,1006.83
2017-06-12T12:30:40.025Z,1006.8
2017-06-12T12:31:51.971Z,1006.81
2017-06-12T12:33:04.513Z,1006.64
2017-06-12T12:34:17.077Z,1006.52
2017-06-12T12:35:29.622Z,1006.34
2017-06-12T12:36:42.171Z,1006.31
2017-06-12T12:37:54.514Z,1006.31
2017-06-12T12:39:06.763Z,1006.37
2017-06-12T12:40:19.313Z,1006.47
2017-06-12T12:41:31.255Z,1006.57
2017-06-12T12:42:43.501Z,1006.49
2017-06-12T12:43:56.056Z,1006.69
2017-06-12T12:45:08.317Z,1006.33
2017-06-12T12:46:20.868Z,1006.41
2017-06-12T12:47:33.144Z,1006.34
2017-06-12T12:48:45.106Z,1006.3
2017-06-12T12:49:57.673Z,1006.56
2017-06-12T12:51:10.232Z,1006.47
2017-06-12T12:52:22.193Z,1006.5
2017-06-12T12:53:34.749Z,1006.39
2017-06-12T12:54:46.986Z,1006.35
2017-06-12T12:55:58.914Z,1006.39
2017-06-12T12:57:11.156Z,1006.5
2017-06-12T12:58:23.430Z,1006.41
2017-06-12T12:59:36.003Z,1006.42
2017-06-12T13:00:48.548Z,1006.23
2017-06-12T13:02:00.806Z,1006.39
2017-06-12T13:03:13.036Z,1006.34
2017-06-12T13:04:25.583Z,1006.36
2017-06-12T13:05:38.099Z,1006.47
2017-06-12T13:06:50.644Z,1006.46
2017-06-12T13:08:03.215Z,1006.56
2017-06-12T13:09:14.862Z,1006.53
2017-06-12T13:10:27.411Z,1006.74
2017-06-12T13:11:39.961Z,1006.7
2017-06-12T13:12:52.203Z,1006.62
2017-06-12T13:14:04.449Z,1006.78
2017-06-12T13:15:16.398Z,1006.72
2017-06-12T13:16:28.644Z,1006.87
2017-06-12T13:17:40.886Z,1006.82
2017-06-12T13:18:53.403Z,1006.8
2017-06-12T13:20:05.957Z,1006.83
2017-06-12T13:21:18.200Z,1006.91
2017-06-12T13:22:30.423Z,1006.98
2017-06-12T13:23:42.667Z,1007.09
2017-06-12T13:24:55.222Z,1007.21
2017-06-12T13:26:07.776Z,1007.09
2017-06-12T13:27:20.029Z,1006.87
2017-06-12T13:28:32.555Z,1006.74
2017-06-12T13:29:44.789Z,1006.7
2017-06-12T13:30:57.042Z,1006.7
2017-06-12T13:32:09.606Z,1006.68
2017-06-12T13:33:21.828Z,1006.5
2017-06-12T13:34:33.780Z,1006.59
2017-06-12T13:35:46.348Z,1006.72
2017-06-12T13:36:58.900Z,1006.71
2017-06-12T13:38:11.159Z,1006.72
2017-06-12T13:39:23.688Z,1006.77
2017-06-12T13:40:35.955Z,1006.62
2017-06-12T13:41:47.897Z,1006.65
2017-06-12T13:43:00.136Z,1006.71
2017-06-12T13:44:12.693Z,1006.76
2017-06-12T13:45:25.296Z,1006.71
2017-06-12T13:46:37.814Z,1006.85
2017-06-12T13:47:50.364Z,1006.83
2017-06-12T13:49:02.649Z,1006.95
2017-06-12T13:50:15.180Z,1006.98
2017-06-12T13:51:27.728Z,1006.92
2017-06-12T13:52:39.960Z,1006.97
2017-06-12T13:53:52.217Z,1006.86
2017-06-12T13:55:04.156Z,1006.62
2017-06-12T13:56:16.408Z,1006.77
2017-06-12T13:57:28.948Z,1006.74
2017-06-12T13:58:41.527Z,1006.79
2017-06-12T13:59:53.469Z,1006.75
2017-06-12T14:01:05.744Z,1006.84
2017-06-12T14:02:17.990Z,1006.83
2017-06-12T14:03:30.557Z,1006.76
2017-06-12T14:04:43.157Z,1006.79
2017-06-12T14:05:55.127Z,1006.98
2017-06-12T14:07:07.425Z,1006.93
2017-06-12T14:08:19.683Z,1006.9
2017-06-12T14:09:32.211Z,1006.96
2017-06-12T14:10:44.139Z,1006.95
2017-06-12T14:11:56.388Z,1007
2017-06-12T14:13:08.641Z,1007.03
2017-06-12T14:14:21.180Z,1007.07
2017-06-12T14:15:33.732Z,1006.9
2017-06-12T14:16:46.255Z,1006.85
2017-06-12T14:17:58.485Z,1006.84
2017-06-12T14:19:10.434Z,1006.93
2017-06-12T14:20:23.000Z,1006.94
2017-06-12T14:21:35.556Z,1006.82
2017-06-12T14:22:48.092Z,1006.95
2017-06-12T14:24:00.633Z,1007.08
2017-06-12T14:25:12.601Z,1007.22
2017-06-12T14:26:25.133Z,1007.21
2017-06-12T14:27:37.631Z,1007.03
2017-06-12T14:28:50.164Z,1006.9
2017-06-12T14:30:02.726Z,1006.73
2017-06-12T14:31:14.972Z,1006.7
2017-06-12T14:32:27.214Z,1006.62
2017-06-12T14:33:39.460Z,1006.71
2017-06-12T14:34:52.029Z,1006.81
2017-06-12T14:36:04.274Z,1006.95
2017-06-12T14:37:17.138Z,1006.9
2017-06-12T14:38:29.372Z,1006.87